createdAt,value
2018-07-23T00:00:24.820Z,30.00
2018-07-23T00:02:53.501Z,30.30
2018-07-23T00:05:21.665Z,30.37
2018-07-23T00:07:49.823Z,29.80
2018-07-23T00:10:18.057Z,32.03
2018-07-23T00:12:46.354Z,32.10
2018-07-23T00:15:15.485Z,32.73
2018-07-23T00:17:43.656Z,34.03
2018-07-23T00:20:11.860Z,31.00
2018-07-23T00:22:41.230Z,31.50
2018-07-23T00:25:09.493Z,29.73
2018-07-23T00:27:37.664Z,28.73
2018-07-23T00:30:06.679Z,31.63
2018-07-23T00:32:35.093Z,31.83
2018-07-23T00:35:04.229Z,30.60
2018-07-23T00:37:32.812Z,29.93
2018-07-23T00:40:01.273Z,30.27
2018-07-23T00:42:29.526Z,32.37
2018-07-23T00:44:57.693Z,32.57
2018-07-23T00:47:25.866Z,32.00
2018-07-23T00:49:54.070Z,34.40
2018-07-23T00:52:22.316Z,33.17
2018-07-23T00:54:50.769Z,33.83
2018-07-23T00:57:18.971Z,33.77
2018-07-23T00:59:53.890Z,36.57
2018-07-23T01:02:22.069Z,32.87
2018-07-23T01:04:51.377Z,33.97
2018-07-23T01:07:19.555Z,34.87
2018-07-23T01:09:47.832Z,34.77
2018-07-23T01:12:28.897Z,35.17
2018-07-23T01:14:57.129Z,38.17
2018-07-23T01:17:26.347Z,36.07
2018-07-23T01:19:56.440Z,43.97
2018-07-23T01:22:25.809Z,39.53
2018-07-23T01:24:55.870Z,38.60
2018-07-23T01:27:24.077Z,43.83
2018-07-23T01:29:52.246Z,42.20
2018-07-23T01:32:20.875Z,41.30
2018-07-23T01:34:49.334Z,52.57
2018-07-23T01:37:18.408Z,44.67
2018-07-23T01:39:46.607Z,47.43
2018-07-23T01:42:14.797Z,38.87
2018-07-23T01:44:42.978Z,34.70
2018-07-23T01:47:11.436Z,34.57
2018-07-23T01:49:40.078Z,34.80
2018-07-23T01:52:08.236Z,35.43
2018-07-23T01:54:36.453Z,35.70
2018-07-23T01:57:04.629Z,37.90
2018-07-23T01:59:32.792Z,38.03
2018-07-23T02:02:01.521Z,42.90
2018-07-23T02:04:30.137Z,42.00
2018-07-23T02:06:58.365Z,43.67
2018-07-23T02:09:26.828Z,41.73
2018-07-23T02:11:55.064Z,46.17
2018-07-23T02:14:23.258Z,42.83
2018-07-23T02:16:51.532Z,44.17
2018-07-23T02:19:20.138Z,47.73
2018-07-23T02:21:48.347Z,47.00
2018-07-23T02:24:16.580Z,45.23
2018-07-23T02:26:45.573Z,44.73
2018-07-23T02:29:14.283Z,43.83
2018-07-23T02:31:43.221Z,44.20
2018-07-23T02:34:11.389Z,44.57
2018-07-23T02:36:40.351Z,42.43
2018-07-23T02:39:10.771Z,45.83
2018-07-23T02:41:41.202Z,43.40
2018-07-23T02:44:09.377Z,42.73
2018-07-23T02:46:37.773Z,45.47
2018-07-23T02:49:06.015Z,52.87
2018-07-23T02:51:35.065Z,48.07
2018-07-23T02:54:03.999Z,53.10
2018-07-23T02:56:32.204Z,53.27
2018-07-23T02:59:00.436Z,54.93
2018-07-23T03:01:28.656Z,51.87
2018-07-23T03:03:57.241Z,53.37
2018-07-23T03:06:28.418Z,54.73
2018-07-23T03:08:57.690Z,54.30
2018-07-23T03:11:26.698Z,56.67
2018-07-23T03:13:55.312Z,52.03
2018-07-23T03:16:23.690Z,51.40
2018-07-23T03:18:51.991Z,51.97
2018-07-23T03:21:21.168Z,48.73
2018-07-23T03:23:49.371Z,45.33
2018-07-23T03:26:17.592Z,46.40
2018-07-23T03:28:47.269Z,48.80
2018-07-23T03:31:15.450Z,50.73
2018-07-23T03:33:43.632Z,48.20
2018-07-23T03:36:12.184Z,49.13
2018-07-23T03:38:40.354Z,43.80
2018-07-23T03:41:09.113Z,43.20
2018-07-23T03:43:37.567Z,48.07
2018-07-23T03:46:06.084Z,52.73
2018-07-23T03:48:35.187Z,50.97
2018-07-23T03:51:03.388Z,52.40
2018-07-23T03:53:31.590Z,49.93
2018-07-23T03:55:59.786Z,48.73
2018-07-23T03:58:28.008Z,48.10
2018-07-23T04:00:56.208Z,48.53
2018-07-23T04:03:25.082Z,47.60
2018-07-23T04:05:53.318Z,45.17
2018-07-23T04:08:21.602Z,46.60
2018-07-23T04:10:49.884Z,46.17
2018-07-23T04:13:18.450Z,45.53
2018-07-23T04:15:47.736Z,46.30
2018-07-23T04:18:16.229Z,45.27
2018-07-23T04:20:44.408Z,41.90
2018-07-23T04:23:12.922Z,38.57
2018-07-23T04:25:41.780Z,39.03
2018-07-23T04:28:09.996Z,43.40
2018-07-23T04:30:38.207Z,42.90
2018-07-23T04:33:06.996Z,41.50
2018-07-23T04:35:36.096Z,43.80
2018-07-23T04:38:04.333Z,45.90
2018-07-23T04:40:32.896Z,47.03
2018-07-23T04:43:02.668Z,46.60
2018-07-23T04:45:30.919Z,45.47
2018-07-23T04:48:00.047Z,40.40
2018-07-23T04:50:35.669Z,42.97
2018-07-23T04:53:04.880Z,39.83
2018-07-23T04:55:33.173Z,41.73
2018-07-23T04:58:01.603Z,43.20
2018-07-23T05:00:30.081Z,41.97
2018-07-23T05:02:58.643Z,46.03
2018-07-23T05:05:29.013Z,45.27
2018-07-23T05:07:57.267Z,42.73
2018-07-23T05:10:25.649Z,38.73
2018-07-23T05:12:53.896Z,37.57
2018-07-23T05:15:22.121Z,40.03
2018-07-23T05:17:50.984Z,41.10
2018-07-23T05:20:19.221Z,39.43
2018-07-23T05:22:47.744Z,37.07
2018-07-23T05:25:16.226Z,43.47
2018-07-23T05:27:44.521Z,43.33
2018-07-23T05:30:12.692Z,44.00
2018-07-23T05:32:41.328Z,44.37
2018-07-23T05:35:10.112Z,43.90
2018-07-23T05:37:38.692Z,39.63
2018-07-23T05:40:07.385Z,41.03
2018-07-23T05:42:36.202Z,38.27
2018-07-23T05:45:06.129Z,38.47
2018-07-23T05:47:34.574Z,39.57
2018-07-23T05:50:04.525Z,42.30
2018-07-23T05:52:33.076Z,40.07
2018-07-23T05:55:01.464Z,36.37
2018-07-23T05:57:29.762Z,39.53
2018-07-23T05:59:58.049Z,41.07
2018-07-23T06:02:27.772Z,39.17
2018-07-23T06:04:55.931Z,38.37
2018-07-23T06:07:24.198Z,36.80
2018-07-23T06:09:52.465Z,35.17
2018-07-23T06:12:20.897Z,36.17
2018-07-23T06:14:49.138Z,37.53
2018-07-23T06:17:17.348Z,36.13
2018-07-23T06:19:45.581Z,36.93
2018-07-23T06:22:14.087Z,35.90
2018-07-23T06:24:42.478Z,39.37
2018-07-23T06:27:10.943Z,41.50
2018-07-23T06:29:39.473Z,35.30
2018-07-23T06:32:08.331Z,36.87
2018-07-23T06:34:36.601Z,34.90
2018-07-23T06:37:04.838Z,32.00
2018-07-23T06:39:33.352Z,31.63
2018-07-23T06:42:02.032Z,32.20
2018-07-23T06:44:30.285Z,33.73
2018-07-23T06:46:58.914Z,33.93
2018-07-23T06:49:27.213Z,33.73
2018-07-23T06:51:55.585Z,35.87
2018-07-23T06:54:24.171Z,36.43
2018-07-23T06:56:52.425Z,36.33
2018-07-23T06:59:21.048Z,34.70
2018-07-23T07:01:49.233Z,36.27
2018-07-23T07:04:17.676Z,69.87
2018-07-23T07:06:46.071Z,35.27
2018-07-23T07:09:14.325Z,40.33
2018-07-23T07:11:42.746Z,37.00
2018-07-23T07:14:11.041Z,34.97
2018-07-23T07:16:39.605Z,41.60
2018-07-23T07:19:07.860Z,37.67
2018-07-23T07:21:36.321Z,39.00
2018-07-23T07:24:05.228Z,36.27
2018-07-23T07:26:33.808Z,34.17
2018-07-23T07:29:02.154Z,34.23
2018-07-23T07:31:30.935Z,39.43
2018-07-23T07:33:59.148Z,38.40
2018-07-23T07:36:27.561Z,40.93
2018-07-23T07:38:56.490Z,49.57
2018-07-23T07:41:25.005Z,45.30
2018-07-23T07:43:53.286Z,43.57
2018-07-23T07:46:21.879Z,37.87
2018-07-23T07:48:50.150Z,45.13
2018-07-23T07:51:18.402Z,47.33
2018-07-23T07:53:47.255Z,45.17
2018-07-23T07:56:15.470Z,44.63
2018-07-23T07:58:43.794Z,46.07
2018-07-23T08:01:12.513Z,50.97
2018-07-23T08:03:40.852Z,47.50
2018-07-23T08:06:09.587Z,59.33
2018-07-23T08:08:38.169Z,47.80
2018-07-23T08:11:06.840Z,42.57
2018-07-23T08:13:36.229Z,48.77
2018-07-23T08:16:04.739Z,46.53
2018-07-23T08:18:33.515Z,40.40
2018-07-23T08:21:02.849Z,46.50
2018-07-23T08:23:31.939Z,41.80
2018-07-23T08:26:00.539Z,42.07
2018-07-23T08:28:28.852Z,43.53
2018-07-23T08:30:57.107Z,37.23
2018-07-23T08:33:26.653Z,40.27
2018-07-23T08:35:54.864Z,36.87
2018-07-23T08:38:23.105Z,38.13
2018-07-23T08:40:51.537Z,36.20
2018-07-23T08:43:20.378Z,41.23
2018-07-23T08:45:49.566Z,34.87
2018-07-23T08:48:17.797Z,35.73
2018-07-23T08:50:46.688Z,36.93
2018-07-23T08:53:15.073Z,38.80
2018-07-23T08:55:43.324Z,37.60
2018-07-23T08:58:12.174Z,36.20
2018-07-23T09:00:41.052Z,34.30
2018-07-23T09:03:09.406Z,37.93
2018-07-23T09:05:38.114Z,41.13
2018-07-23T09:08:06.445Z,39.00
2018-07-23T09:10:34.618Z,36.90
2018-07-23T09:13:03.101Z,38.90
2018-07-23T09:15:31.792Z,38.40
2018-07-23T09:18:00.364Z,34.13
2018-07-23T09:20:28.808Z,33.47
2018-07-23T09:22:57.038Z,32.43
2018-07-23T09:25:31.051Z,35.23
2018-07-23T09:27:59.289Z,34.27
2018-07-23T09:30:33.483Z,34.30
2018-07-23T09:33:01.686Z,32.60
2018-07-23T09:35:30.063Z,29.73
2018-07-23T09:37:58.306Z,31.80
2018-07-23T09:40:26.514Z,26.20
2018-07-23T09:42:54.753Z,28.70
2018-07-23T09:45:23.701Z,26.60
2018-07-23T09:47:51.903Z,25.30
2018-07-23T09:50:21.642Z,21.60
2018-07-23T09:52:49.875Z,20.53
2018-07-23T09:55:18.098Z,18.63
2018-07-23T09:57:46.700Z,20.23
2018-07-23T10:00:19.569Z,21.23
2018-07-23T10:02:47.742Z,20.90
2018-07-23T10:05:16.243Z,23.40
2018-07-23T10:07:44.926Z,23.83
2018-07-23T10:10:13.134Z,21.10
2018-07-23T10:12:41.617Z,20.90
2018-07-23T10:15:09.834Z,20.60
2018-07-23T10:17:38.181Z,18.33
2018-07-23T10:20:06.458Z,16.27
2018-07-23T10:22:34.970Z,18.77
2018-07-23T10:25:03.616Z,17.60
2018-07-23T10:27:32.174Z,17.07
2018-07-23T10:30:00.535Z,20.57
2018-07-23T10:32:29.160Z,21.07
2018-07-23T10:34:57.857Z,18.97
2018-07-23T10:37:26.259Z,17.80
2018-07-23T10:39:54.479Z,15.70
2018-07-23T10:42:23.448Z,18.10
2018-07-23T10:44:53.466Z,13.53
2018-07-23T10:47:22.617Z,14.00
2018-07-23T10:49:51.437Z,15.97
2018-07-23T10:52:19.598Z,12.43
2018-07-23T10:54:47.814Z,13.40
2018-07-23T10:57:16.081Z,11.73
2018-07-23T10:59:44.712Z,14.03
2018-07-23T11:02:13.597Z,13.37
2018-07-23T11:04:42.166Z,15.83
2018-07-23T11:07:10.408Z,14.20
2018-07-23T11:09:39.203Z,13.27
2018-07-23T11:12:07.860Z,14.87
2018-07-23T11:14:36.169Z,14.17
2018-07-23T11:17:04.673Z,13.63
2018-07-23T11:19:32.901Z,14.03
2018-07-23T11:22:01.090Z,13.27
2018-07-23T11:24:29.426Z,15.83
2018-07-23T11:26:58.242Z,12.80
2018-07-23T11:29:27.103Z,11.83
2018-07-23T11:31:55.347Z,24.77
2018-07-23T11:34:23.880Z,14.50
2018-07-23T11:36:52.080Z,14.23
2018-07-23T11:39:20.301Z,14.33
2018-07-23T11:41:48.478Z,13.00
2018-07-23T11:44:16.767Z,12.03
2018-07-23T11:46:45.563Z,14.87
2018-07-23T11:49:13.756Z,18.47
2018-07-23T11:51:41.940Z,12.87
2018-07-23T11:54:10.861Z,13.77
2018-07-23T11:56:39.220Z,15.80
2018-07-23T11:59:07.781Z,12.20
2018-07-23T12:01:37.659Z,20.70
2018-07-23T12:04:10.406Z,12.87
2018-07-23T12:06:35.681Z,12.70
2018-07-23T12:09:07.381Z,12.20
2018-07-23T12:11:35.897Z,13.80
2018-07-23T12:14:06.132Z,13.00
2018-07-23T12:16:35.012Z,19.47
2018-07-23T12:19:07.084Z,24.73
2018-07-23T12:21:41.230Z,11.47
2018-07-23T12:24:10.873Z,27.07
2018-07-23T12:26:43.554Z,35.37
2018-07-23T12:29:19.140Z,12.13
2018-07-23T12:31:51.183Z,14.43
2018-07-23T12:34:30.907Z,13.23
2018-07-23T12:37:03.897Z,15.27
2018-07-23T12:39:37.106Z,12.27
2018-07-23T12:42:13.073Z,14.33
2018-07-23T12:44:42.393Z,11.73
2018-07-23T12:47:12.136Z,11.20
2018-07-23T12:49:41.860Z,14.23
2018-07-23T12:52:16.472Z,14.80
2018-07-23T12:54:54.980Z,10.17
2018-07-23T12:57:30.235Z,10.70
2018-07-23T13:00:04.328Z,12.40
2018-07-23T13:02:35.295Z,10.57
2018-07-23T13:05:11.332Z,10.37
2018-07-23T13:07:41.538Z,10.73
2018-07-23T13:10:10.084Z,11.23
2018-07-23T13:12:46.098Z,12.37
2018-07-23T13:15:21.217Z,9.37
2018-07-23T13:17:53.409Z,10.17
2018-07-23T13:20:22.211Z,13.63
2018-07-23T13:22:51.204Z,15.13
2018-07-23T13:25:19.594Z,12.70
2018-07-23T13:27:47.898Z,11.40
2018-07-23T13:30:19.599Z,9.73
2018-07-23T13:32:52.814Z,9.57
2018-07-23T13:35:22.781Z,14.53
2018-07-23T13:38:01.038Z,11.30
2018-07-23T13:40:49.878Z,12.30
2018-07-23T13:43:27.104Z,9.73
2018-07-23T13:46:01.869Z,11.77
2018-07-23T13:48:30.311Z,11.23
2018-07-23T13:50:58.841Z,13.33
2018-07-23T13:53:28.575Z,12.47
2018-07-23T13:56:06.007Z,11.73
2018-07-23T13:58:40.940Z,10.07
2018-07-23T14:01:18.695Z,12.03
2018-07-23T14:03:56.908Z,10.77
2018-07-23T14:06:37.970Z,12.80
2018-07-23T14:09:22.652Z,9.90
2018-07-23T14:12:04.835Z,11.83
2018-07-23T14:14:41.062Z,11.73
2018-07-23T14:17:26.736Z,11.07
2018-07-23T14:20:19.539Z,11.20
2018-07-23T14:22:56.614Z,12.50
2018-07-23T14:25:46.212Z,10.97
2018-07-23T14:28:36.824Z,12.03
2018-07-23T14:31:13.929Z,11.63
2018-07-23T14:33:59.293Z,11.07
2018-07-23T14:36:48.374Z,11.53
2018-07-23T14:39:30.342Z,10.47
2018-07-23T14:42:03.038Z,12.60
2018-07-23T14:44:34.783Z,10.60
2018-07-23T14:50:59.607Z,9.77
2018-07-23T14:53:31.060Z,14.43
2018-07-23T14:55:59.516Z,10.27
2018-07-23T14:58:27.655Z,12.23
2018-07-23T15:00:56.042Z,11.37
2018-07-23T15:03:24.274Z,11.40
2018-07-23T15:05:52.521Z,11.93
2018-07-23T15:08:21.796Z,10.70
2018-07-23T15:11:02.250Z,12.83
2018-07-23T15:13:36.162Z,9.67
2018-07-23T15:16:15.467Z,9.97
2018-07-23T15:18:43.865Z,25.20
2018-07-23T15:21:15.791Z,12.43
2018-07-23T15:23:45.898Z,12.20
2018-07-23T15:26:26.578Z,10.73
2018-07-23T15:29:01.204Z,12.63
2018-07-23T15:31:29.472Z,11.03
2018-07-23T15:33:57.661Z,12.53
2018-07-23T15:36:26.202Z,9.47
2018-07-23T15:38:55.371Z,9.67
2018-07-23T15:41:24.446Z,9.73
2018-07-23T15:43:53.548Z,9.83
2018-07-23T15:46:29.774Z,10.77
2018-07-23T15:49:08.272Z,10.40
2018-07-23T15:51:37.149Z,10.23
2018-07-23T15:54:05.840Z,11.37
2018-07-23T15:56:34.358Z,12.23
2018-07-23T15:59:02.766Z,12.77
2018-07-23T16:01:30.979Z,9.63
2018-07-23T16:03:59.562Z,11.63
2018-07-23T16:06:28.063Z,18.57
2018-07-23T16:08:56.421Z,10.37
2018-07-23T16:11:24.733Z,13.87
2018-07-23T16:13:53.147Z,12.50
2018-07-23T16:16:21.874Z,17.87
2018-07-23T16:18:51.457Z,13.17
2018-07-23T16:21:19.692Z,9.73
2018-07-23T16:23:48.574Z,9.40
2018-07-23T16:26:18.247Z,9.47
2018-07-23T16:28:46.474Z,9.40
2018-07-23T16:31:14.636Z,8.40
2018-07-23T16:33:43.188Z,9.90
2018-07-23T16:36:11.814Z,11.23
2018-07-23T16:38:40.460Z,9.50
2018-07-23T16:41:08.706Z,12.83
2018-07-23T16:43:37.256Z,10.50
2018-07-23T16:46:05.868Z,9.33
2018-07-23T16:48:36.985Z,10.20
2018-07-23T16:51:06.075Z,12.53
2018-07-23T16:53:36.399Z,11.80
2018-07-23T16:56:05.373Z,11.20
2018-07-23T16:58:36.629Z,9.83
2018-07-23T17:01:05.051Z,11.67
2018-07-23T17:03:40.634Z,10.07
2018-07-23T17:06:09.322Z,13.53
2018-07-23T17:08:42.230Z,8.93
2018-07-23T17:11:11.251Z,8.90
2018-07-23T17:13:40.432Z,9.60
2018-07-23T17:16:08.705Z,10.97
2018-07-23T17:18:38.357Z,9.33
2018-07-23T17:21:07.260Z,10.50
2018-07-23T17:23:35.672Z,10.07
2018-07-23T17:26:03.876Z,9.47
2018-07-23T17:28:32.083Z,9.90
2018-07-23T17:31:00.300Z,9.90
2018-07-23T17:33:28.770Z,9.33
2018-07-23T17:35:57.960Z,9.73
2018-07-23T17:38:26.572Z,13.37
2018-07-23T17:40:54.740Z,9.43
2018-07-23T17:43:23.342Z,13.03
2018-07-23T17:45:51.693Z,34.37
2018-07-23T17:48:20.353Z,16.97
2018-07-23T17:50:49.332Z,12.33
2018-07-23T17:53:17.430Z,10.03
2018-07-23T17:55:45.897Z,10.37
2018-07-23T17:58:14.464Z,10.40
2018-07-23T18:00:42.945Z,10.53
2018-07-23T18:03:11.712Z,10.10
2018-07-23T18:05:40.992Z,15.23
2018-07-23T18:08:09.379Z,11.27
2018-07-23T18:10:37.599Z,12.53
2018-07-23T18:13:06.120Z,12.00
2018-07-23T18:15:34.616Z,13.57
2018-07-23T18:18:04.002Z,10.23
2018-07-23T18:20:33.125Z,12.83
2018-07-23T18:23:01.650Z,10.63
2018-07-23T18:25:31.444Z,10.47
2018-07-23T18:28:01.571Z,11.00
2018-07-23T18:30:31.021Z,11.13
2018-07-23T18:32:59.322Z,12.47
2018-07-23T18:35:27.555Z,11.87
2018-07-23T18:37:56.309Z,12.57
2018-07-23T18:40:25.363Z,12.10
2018-07-23T18:42:53.886Z,10.67
2018-07-23T18:45:22.151Z,12.20
2018-07-23T18:47:50.690Z,10.80
2018-07-23T18:50:19.444Z,14.20
2018-07-23T18:52:47.704Z,13.47
2018-07-23T18:55:16.196Z,15.00
2018-07-23T18:57:44.535Z,14.30
2018-07-23T19:00:12.968Z,19.20
2018-07-23T19:02:41.599Z,18.50
2018-07-23T19:05:09.854Z,20.67
2018-07-23T19:07:38.386Z,17.23
2018-07-23T19:10:08.737Z,14.97
2018-07-23T19:12:37.764Z,15.97
2018-07-23T19:15:06.768Z,16.90
2018-07-23T19:17:36.934Z,18.07
2018-07-23T19:20:05.521Z,19.20
2018-07-23T19:22:37.028Z,20.40
2018-07-23T19:25:07.525Z,21.17
2018-07-23T19:27:38.219Z,17.40
2018-07-23T19:30:08.683Z,16.43
2018-07-23T19:32:37.233Z,18.67
2018-07-23T19:35:07.848Z,19.33
2018-07-23T19:37:36.067Z,16.00
2018-07-23T19:40:04.328Z,18.57
2018-07-23T19:42:32.692Z,17.17
2018-07-23T19:45:01.481Z,12.03
2018-07-23T19:47:30.099Z,12.70
2018-07-23T19:49:58.280Z,12.50
2018-07-23T19:52:26.496Z,18.23
2018-07-23T19:54:54.700Z,20.33
2018-07-23T19:57:24.705Z,17.73
2018-07-23T19:59:53.074Z,57.17
2018-07-23T20:02:21.521Z,19.37
2018-07-23T20:04:49.694Z,16.40
2018-07-23T20:07:20.370Z,19.83
2018-07-23T20:09:48.564Z,23.53
2018-07-23T20:12:18.148Z,17.73
2018-07-23T20:14:46.486Z,19.20
2018-07-23T20:17:15.572Z,16.43
2018-07-23T20:19:48.685Z,23.70
2018-07-23T20:22:18.135Z,49.43
2018-07-23T20:24:46.309Z,17.30
2018-07-23T20:27:15.706Z,17.10
2018-07-23T20:29:44.144Z,24.47
2018-07-23T20:32:12.793Z,21.07
2018-07-23T20:34:40.991Z,20.27
2018-07-23T20:37:09.510Z,18.20
2018-07-23T20:39:38.005Z,23.03
2018-07-23T20:42:06.284Z,17.20
2018-07-23T20:44:34.533Z,15.60
2018-07-23T20:47:03.829Z,20.63
2018-07-23T20:49:33.377Z,19.27
2018-07-23T20:52:02.615Z,34.17
2018-07-23T20:54:31.159Z,25.47
2018-07-23T20:57:01.847Z,18.57
2018-07-23T20:59:30.068Z,25.10
2018-07-23T21:01:58.541Z,19.50
2018-07-23T21:04:29.240Z,16.30
2018-07-23T21:06:57.340Z,18.47
2018-07-23T21:09:25.688Z,20.27
2018-07-23T21:11:54.200Z,51.73
2018-07-23T21:14:22.748Z,41.40
2018-07-23T21:16:51.001Z,19.83
2018-07-23T21:19:19.163Z,21.37
2018-07-23T21:21:48.115Z,24.47
2018-07-23T21:24:16.284Z,18.47
2018-07-23T21:26:44.541Z,15.90
2018-07-23T21:29:12.984Z,16.90
2018-07-23T21:31:41.883Z,15.37
2018-07-23T21:34:10.188Z,29.00
2018-07-23T21:36:39.471Z,44.13
2018-07-23T21:39:09.678Z,16.30
2018-07-23T21:41:39.360Z,16.77
2018-07-23T21:44:09.232Z,18.43
2018-07-23T21:46:37.405Z,17.70
2018-07-23T21:49:05.780Z,19.33
2018-07-23T21:51:34.845Z,20.37
2018-07-23T21:54:03.126Z,18.10
2018-07-23T21:56:31.876Z,17.10
2018-07-23T21:59:00.409Z,19.37
2018-07-23T22:01:28.914Z,17.40
2018-07-23T22:03:57.476Z,19.87
2018-07-23T22:06:25.955Z,16.53
2018-07-23T22:08:55.483Z,16.57
2018-07-23T22:11:23.681Z,17.33
2018-07-23T22:13:51.924Z,16.83
2018-07-23T22:16:20.193Z,16.70
2018-07-23T22:18:48.444Z,18.17
2018-07-23T22:21:16.648Z,18.37
2018-07-23T22:23:44.878Z,17.07
2018-07-23T22:26:13.695Z,17.10
2018-07-23T22:28:42.516Z,17.70
2018-07-23T22:31:10.615Z,20.30
2018-07-23T22:33:39.525Z,16.67
2018-07-23T22:36:07.740Z,19.07
2018-07-23T22:38:36.864Z,17.17
2018-07-23T22:41:05.144Z,18.40
2018-07-23T22:43:35.303Z,18.30
2018-07-23T22:46:04.384Z,19.87
2018-07-23T22:48:33.147Z,19.87
2018-07-23T22:51:01.941Z,19.70
2018-07-23T22:53:30.502Z,18.33
2018-07-23T22:55:58.856Z,19.37
2018-07-23T22:58:27.229Z,19.40
2018-07-23T23:00:55.756Z,19.17
2018-07-23T23:03:23.987Z,19.57
2018-07-23T23:05:52.227Z,18.47
2018-07-23T23:08:20.915Z,18.50
2018-07-23T23:10:50.375Z,19.20
2018-07-23T23:13:19.339Z,20.70
2018-07-23T23:15:47.586Z,21.53
2018-07-23T23:18:15.793Z,17.40
2018-07-23T23:20:44.529Z,17.73
2018-07-23T23:23:12.699Z,17.37
2018-07-23T23:25:40.877Z,23.20
2018-07-23T23:28:09.076Z,18.17
2018-07-23T23:30:37.253Z,18.00
2018-07-23T23:33:05.771Z,19.57
2018-07-23T23:35:34.040Z,24.63
2018-07-23T23:38:02.229Z,20.63
2018-07-23T23:40:30.719Z,21.90
2018-07-23T23:42:58.919Z,19.07
2018-07-23T23:45:27.140Z,18.57
2018-07-23T23:47:55.944Z,19.27
2018-07-23T23:50:24.079Z,19.97
2018-07-23T23:52:52.749Z,21.63
2018-07-23T23:55:21.196Z,19.07
2018-07-23T23:57:49.711Z,19.73
